createdAt,value
2023-02-07T00:00:36.344Z,23.92
2023-02-07T00:03:30.781Z,23.85
2023-02-07T00:06:09.059Z,24.40
2023-02-07T00:08:42.440Z,24.05
2023-02-07T00:11:17.395Z,23.15
2023-02-07T00:13:52.980Z,23.30
2023-02-07T00:16:26.502Z,24.02
2023-02-07T00:19:01.552Z,24.75
2023-02-07T00:21:33.820Z,24.30
2023-02-07T00:24:08.451Z,23.67
2023-02-07T00:26:40.143Z,25.55
2023-02-07T00:29:14.884Z,21.80
2023-02-07T00:31:46.587Z,22.25
2023-02-07T00:34:21.318Z,23.02
2023-02-07T00:36:53.120Z,22.15
2023-02-07T00:39:25.143Z,22.83
2023-02-07T00:41:56.969Z,22.58
2023-02-07T00:44:28.898Z,22.52
2023-02-07T00:47:00.692Z,23.35
2023-02-07T00:49:35.386Z,24.08
2023-02-07T00:52:07.776Z,23.58
2023-02-07T00:54:39.629Z,23.85
2023-02-07T00:57:11.751Z,24.05
2023-02-07T00:59:48.818Z,24.40
2023-02-07T01:02:26.968Z,24.25
2023-02-07T01:05:05.387Z,24.77
2023-02-07T01:07:37.396Z,23.23
2023-02-07T01:10:10.430Z,24.77
2023-02-07T01:12:41.836Z,25.80
2023-02-07T01:15:15.755Z,25.35
2023-02-07T01:17:47.650Z,24.80
2023-02-07T01:20:21.986Z,26.02
2023-02-07T01:22:53.361Z,25.83
2023-02-07T01:25:24.982Z,27.10
2023-02-07T01:27:59.772Z,25.17
2023-02-07T01:30:33.903Z,25.20
2023-02-07T01:33:05.846Z,25.88
2023-02-07T01:35:41.263Z,25.60
2023-02-07T01:38:13.204Z,25.48
2023-02-07T01:40:45.592Z,27.00
2023-02-07T01:43:28.570Z,27.30
2023-02-07T01:46:00.785Z,25.73
2023-02-07T01:48:36.366Z,26.98
2023-02-07T01:51:11.711Z,26.40
2023-02-07T01:53:44.608Z,27.77
2023-02-07T01:56:30.735Z,26.60
2023-02-07T01:59:07.627Z,28.98
2023-02-07T02:01:39.943Z,27.00
2023-02-07T02:04:11.715Z,27.88
2023-02-07T02:07:00.445Z,27.27
2023-02-07T02:09:34.723Z,28.70
2023-02-07T02:12:35.316Z,26.45
2023-02-07T02:15:23.501Z,26.30
2023-02-07T02:18:13.728Z,26.45
2023-02-07T02:21:22.676Z,27.10
2023-02-07T02:24:23.657Z,25.65
2023-02-07T02:27:09.569Z,26.58
2023-02-07T02:30:32.794Z,27.38
2023-02-07T02:33:30.385Z,27.15
2023-02-07T02:36:14.231Z,27.67
2023-02-07T02:38:54.413Z,28.80
2023-02-07T02:41:33.754Z,25.88
2023-02-07T02:44:11.082Z,27.20
2023-02-07T02:46:45.929Z,28.23
2023-02-07T02:49:26.395Z,28.83
2023-02-07T02:52:03.420Z,26.85
2023-02-07T02:54:37.540Z,26.55
2023-02-07T02:57:27.781Z,27.20
2023-02-07T03:00:26.682Z,27.05
2023-02-07T03:03:15.751Z,26.58
2023-02-07T03:06:05.149Z,27.02
2023-02-07T03:08:48.620Z,25.77
2023-02-07T03:11:52.836Z,26.95
2023-02-07T03:14:36.885Z,27.50
2023-02-07T03:17:18.163Z,27.08
2023-02-07T03:19:57.521Z,27.25
2023-02-07T03:22:33.069Z,26.55
2023-02-07T03:25:10.907Z,26.98
2023-02-07T03:27:43.942Z,25.55
2023-02-07T03:30:22.469Z,25.67
2023-02-07T03:33:00.014Z,25.38
2023-02-07T03:35:38.064Z,25.00
2023-02-07T03:38:14.215Z,25.83
2023-02-07T03:40:50.953Z,24.77
2023-02-07T03:43:28.326Z,25.80
2023-02-07T03:46:00.854Z,24.85
2023-02-07T03:48:32.592Z,25.48
2023-02-07T03:51:04.767Z,24.92
2023-02-07T03:53:39.355Z,26.00
2023-02-07T03:56:12.969Z,25.63
2023-02-07T03:58:45.548Z,27.48
2023-02-07T04:01:17.499Z,26.95
2023-02-07T04:03:52.272Z,25.27
2023-02-07T04:06:24.850Z,26.27
2023-02-07T04:09:00.928Z,25.23
2023-02-07T04:11:35.016Z,26.02
2023-02-07T04:14:07.416Z,27.15
2023-02-07T04:16:39.781Z,28.58
2023-02-07T04:19:11.945Z,27.85
2023-02-07T04:21:44.334Z,29.25
2023-02-07T04:24:19.187Z,26.38
2023-02-07T04:26:52.022Z,25.90
2023-02-07T04:29:24.300Z,26.92
2023-02-07T04:31:58.884Z,27.38
2023-02-07T04:34:31.288Z,27.45
2023-02-07T04:37:03.678Z,27.02
2023-02-07T04:39:38.741Z,28.58
2023-02-07T04:42:11.132Z,28.52
2023-02-07T04:44:44.211Z,27.25
2023-02-07T04:47:16.892Z,27.92
2023-02-07T04:49:48.797Z,25.98
2023-02-07T04:52:20.677Z,26.83
2023-02-07T04:54:54.917Z,27.08
2023-02-07T04:57:26.953Z,27.10
2023-02-07T05:00:00.690Z,27.73
2023-02-07T05:02:32.739Z,28.23
2023-02-07T05:05:07.215Z,25.48
2023-02-07T05:07:38.908Z,27.20
2023-02-07T05:10:13.364Z,27.15
2023-02-07T05:12:46.635Z,28.50
2023-02-07T05:15:18.548Z,28.15
2023-02-07T05:17:52.910Z,28.10
2023-02-07T05:20:32.012Z,29.02
2023-02-07T05:23:07.324Z,29.45
2023-02-07T05:25:41.770Z,28.33
2023-02-07T05:28:17.489Z,29.45
2023-02-07T05:30:56.036Z,28.58
2023-02-07T05:33:25.678Z,28.85
2023-02-07T05:36:03.429Z,27.30
2023-02-07T05:38:35.361Z,27.50
2023-02-07T05:41:11.221Z,26.73
2023-02-07T05:43:44.998Z,26.50
2023-02-07T05:46:19.362Z,28.60
2023-02-07T05:48:57.546Z,28.52
2023-02-07T05:51:33.762Z,28.75
2023-02-07T05:54:07.958Z,28.65
2023-02-07T05:56:42.182Z,29.35
2023-02-07T05:59:17.455Z,28.80
2023-02-07T06:01:53.035Z,28.55
2023-02-07T06:04:27.841Z,29.08
2023-02-07T06:07:03.884Z,29.23
2023-02-07T06:09:35.715Z,29.63
2023-02-07T06:12:10.830Z,29.42
2023-02-07T06:14:42.741Z,29.52
2023-02-07T06:17:14.826Z,30.45
2023-02-07T06:19:46.860Z,29.63
2023-02-07T06:22:18.793Z,30.42
2023-02-07T06:24:52.356Z,30.33
2023-02-07T06:27:26.682Z,29.98
2023-02-07T06:29:58.874Z,29.48
2023-02-07T06:32:34.306Z,30.38
2023-02-07T06:35:06.780Z,30.40
2023-02-07T06:37:37.998Z,30.77
2023-02-07T06:40:10.761Z,31.08
2023-02-07T06:42:46.669Z,31.05
2023-02-07T06:45:18.534Z,30.25
2023-02-07T06:47:51.305Z,32.75
2023-02-07T06:50:23.410Z,33.83
2023-02-07T06:52:55.196Z,32.63
2023-02-07T06:55:30.941Z,30.38
2023-02-07T06:58:08.470Z,32.08
2023-02-07T07:00:41.058Z,31.52
2023-02-07T07:03:18.891Z,31.45
2023-02-07T07:05:51.021Z,30.52
2023-02-07T07:08:22.944Z,30.15
2023-02-07T07:10:59.707Z,31.00
2023-02-07T07:13:34.247Z,32.75
2023-02-07T07:16:06.787Z,31.85
2023-02-07T07:18:39.431Z,35.05
2023-02-07T07:21:13.524Z,35.22
2023-02-07T07:23:45.301Z,34.13
2023-02-07T07:26:17.313Z,34.40
2023-02-07T07:28:51.924Z,35.63
2023-02-07T07:31:24.590Z,36.03
2023-02-07T07:33:58.268Z,36.55
2023-02-07T07:36:30.995Z,36.95
2023-02-07T07:39:08.306Z,37.05
2023-02-07T07:41:41.143Z,36.28
2023-02-07T07:44:16.385Z,35.03
2023-02-07T07:46:48.654Z,34.72
2023-02-07T07:49:21.165Z,35.88
2023-02-07T07:51:53.890Z,35.75
2023-02-07T07:54:26.401Z,35.58
2023-02-07T07:57:02.721Z,33.97
2023-02-07T07:59:37.763Z,34.35
2023-02-07T08:02:10.440Z,33.88
2023-02-07T08:04:42.481Z,33.40
2023-02-07T08:07:32.036Z,30.85
2023-02-07T08:10:03.895Z,31.80
2023-02-07T08:12:37.896Z,31.67
2023-02-07T08:15:15.640Z,32.97
2023-02-07T08:17:50.175Z,33.30
2023-02-07T08:20:23.084Z,30.58
2023-02-07T08:22:54.512Z,29.85
2023-02-07T08:25:29.374Z,28.65
2023-02-07T08:28:04.657Z,28.50
2023-02-07T08:30:40.389Z,29.02
2023-02-07T08:33:12.457Z,29.67
2023-02-07T08:35:44.909Z,28.95
2023-02-07T08:38:16.611Z,27.80
2023-02-07T08:40:49.690Z,26.02
2023-02-07T08:43:27.942Z,25.50
2023-02-07T08:46:03.104Z,25.77
2023-02-07T08:48:34.478Z,26.88
2023-02-07T08:51:11.711Z,28.63
2023-02-07T08:53:43.768Z,26.40
2023-02-07T08:56:18.423Z,26.75
2023-02-07T08:58:52.051Z,24.77
2023-02-07T09:01:27.606Z,25.20
2023-02-07T09:03:59.743Z,25.15
2023-02-07T09:06:32.352Z,24.90
2023-02-07T09:09:03.962Z,26.02
2023-02-07T09:11:36.651Z,25.35
2023-02-07T09:14:09.568Z,24.52
2023-02-07T09:16:44.024Z,25.38
2023-02-07T09:19:16.074Z,25.35
2023-02-07T09:21:48.520Z,23.85
2023-02-07T09:24:21.172Z,24.08
2023-02-07T09:26:53.338Z,24.08
2023-02-07T09:29:25.322Z,24.48
2023-02-07T09:31:59.644Z,25.20
2023-02-07T09:34:33.384Z,23.80
2023-02-07T09:37:06.458Z,24.92
2023-02-07T09:39:43.177Z,23.65
2023-02-07T09:42:27.774Z,23.90
2023-02-07T09:45:05.306Z,23.00
2023-02-07T09:47:44.735Z,23.33
2023-02-07T09:50:21.837Z,22.95
2023-02-07T09:53:00.139Z,23.63
2023-02-07T09:55:48.298Z,22.05
2023-02-07T09:58:30.974Z,21.17
2023-02-07T10:01:09.439Z,20.48
2023-02-07T10:03:50.293Z,18.90
2023-02-07T10:06:29.216Z,18.33
2023-02-07T10:09:03.688Z,19.38
2023-02-07T10:11:48.805Z,19.95
2023-02-07T10:14:51.990Z,18.83
2023-02-07T10:17:35.766Z,18.80
2023-02-07T10:20:35.593Z,18.63
2023-02-07T10:23:34.082Z,19.15
2023-02-07T10:26:20.036Z,18.98
2023-02-07T10:29:19.091Z,20.55
2023-02-07T10:31:55.053Z,20.63
2023-02-07T10:34:31.156Z,17.67
2023-02-07T10:37:18.669Z,20.58
2023-02-07T10:39:58.058Z,19.75
2023-02-07T10:42:34.443Z,19.77
2023-02-07T10:45:08.625Z,19.73
2023-02-07T10:47:45.088Z,18.83
2023-02-07T10:50:29.280Z,19.30
2023-02-07T10:53:05.889Z,17.50
2023-02-07T10:55:46.936Z,18.13
2023-02-07T10:58:24.024Z,18.05
2023-02-07T11:01:01.471Z,18.17
2023-02-07T11:03:33.247Z,17.55
2023-02-07T11:09:28.134Z,18.63
2023-02-07T11:12:00.621Z,18.85
2023-02-07T11:14:34.890Z,19.35
2023-02-07T11:17:08.622Z,20.10
2023-02-07T11:19:41.948Z,18.77
2023-02-07T11:22:22.655Z,18.83
2023-02-07T11:25:05.737Z,18.17
2023-02-07T11:27:42.298Z,19.23
2023-02-07T11:30:22.623Z,17.33
2023-02-07T11:33:00.737Z,16.33
2023-02-07T11:35:33.755Z,17.27
2023-02-07T11:38:15.541Z,16.90
2023-02-07T11:40:53.495Z,15.40
2023-02-07T11:43:26.225Z,16.80
2023-02-07T11:46:07.194Z,17.75
2023-02-07T11:48:43.742Z,18.52
2023-02-07T11:51:22.513Z,17.58
2023-02-07T11:54:00.945Z,19.17
2023-02-07T11:56:42.246Z,16.92
2023-02-07T11:59:21.766Z,17.25
2023-02-07T12:01:57.447Z,16.63
2023-02-07T12:04:33.855Z,17.08
2023-02-07T12:07:17.288Z,16.95
2023-02-07T12:09:56.408Z,16.77
2023-02-07T12:12:42.486Z,17.08
2023-02-07T12:15:21.061Z,16.17
2023-02-07T12:18:02.781Z,17.33
2023-02-07T12:20:38.436Z,17.73
2023-02-07T12:23:40.915Z,16.45
2023-02-07T12:26:18.146Z,16.98
2023-02-07T12:29:13.990Z,16.48
2023-02-07T12:31:58.224Z,15.93
2023-02-07T12:34:36.077Z,15.20
2023-02-07T12:37:20.939Z,15.50
2023-02-07T12:40:02.952Z,16.45
2023-02-07T12:42:41.855Z,15.45
2023-02-07T12:45:34.315Z,14.95
2023-02-07T12:48:16.175Z,14.95
2023-02-07T12:51:17.094Z,16.65
2023-02-07T12:54:09.376Z,14.68
2023-02-07T12:56:56.601Z,15.02
2023-02-07T12:59:41.577Z,14.88
2023-02-07T13:02:33.741Z,15.05
2023-02-07T13:05:32.809Z,14.52
2023-02-07T13:08:17.306Z,14.48
2023-02-07T13:11:02.701Z,14.50
2023-02-07T13:13:41.499Z,15.00
2023-02-07T13:16:21.393Z,13.63
2023-02-07T13:19:01.103Z,13.52
2023-02-07T13:21:44.246Z,14.40
2023-02-07T13:24:23.039Z,14.88
2023-02-07T13:27:00.846Z,14.50
2023-02-07T13:29:35.986Z,15.45
2023-02-07T13:32:25.037Z,15.10
2023-02-07T13:35:04.845Z,14.63
2023-02-07T13:37:45.205Z,14.20
2023-02-07T13:40:40.776Z,14.20
2023-02-07T13:43:19.653Z,14.35
2023-02-07T13:46:02.520Z,14.40
2023-02-07T13:48:41.364Z,14.40
2023-02-07T13:51:25.564Z,14.38
2023-02-07T13:54:05.287Z,13.63
2023-02-07T13:56:51.644Z,13.85
2023-02-07T13:59:43.507Z,14.48
2023-02-07T14:02:26.955Z,13.80
2023-02-07T14:05:10.270Z,13.55
2023-02-07T14:07:46.508Z,13.80
2023-02-07T14:10:46.222Z,13.80
2023-02-07T14:13:36.861Z,12.98
2023-02-07T14:16:13.406Z,13.23
2023-02-07T14:18:51.262Z,13.32
2023-02-07T14:21:53.256Z,13.75
2023-02-07T14:24:36.785Z,14.20
2023-02-07T14:27:30.589Z,14.00
2023-02-07T14:30:21.719Z,14.27
2023-02-07T14:33:16.663Z,13.88
2023-02-07T14:36:09.403Z,14.15
2023-02-07T14:38:46.402Z,14.45
2023-02-07T14:41:41.615Z,14.43
2023-02-07T14:44:28.046Z,13.80
2023-02-07T14:47:03.069Z,14.00
2023-02-07T14:49:40.351Z,14.00
2023-02-07T14:52:17.513Z,14.80
2023-02-07T14:54:54.910Z,14.32
2023-02-07T14:57:46.913Z,14.85
2023-02-07T15:00:31.796Z,15.45
2023-02-07T15:03:09.795Z,15.02
2023-02-07T15:05:52.278Z,14.60
2023-02-07T15:08:37.106Z,15.13
2023-02-07T15:11:38.281Z,15.18
2023-02-07T15:14:50.160Z,15.35
2023-02-07T15:17:28.847Z,13.98
2023-02-07T15:20:07.155Z,14.85
2023-02-07T15:22:40.659Z,13.20
2023-02-07T15:25:27.055Z,13.95
2023-02-07T15:28:11.037Z,14.30
2023-02-07T15:31:19.475Z,14.27
2023-02-07T15:33:55.976Z,14.32
2023-02-07T15:36:39.504Z,13.95
2023-02-07T15:39:19.629Z,14.82
2023-02-07T15:41:55.944Z,14.13
2023-02-07T15:44:43.955Z,14.60
2023-02-07T15:47:36.652Z,13.77
2023-02-07T15:50:20.843Z,14.50
2023-02-07T15:52:57.472Z,15.80
2023-02-07T15:55:37.668Z,15.32
2023-02-07T15:58:19.762Z,15.20
2023-02-07T16:00:53.158Z,14.85
2023-02-07T16:03:47.083Z,13.48
2023-02-07T16:06:25.173Z,14.75
2023-02-07T16:09:12.859Z,14.65
2023-02-07T16:11:45.835Z,14.05
2023-02-07T16:14:25.953Z,13.88
2023-02-07T16:17:00.444Z,13.63
2023-02-07T16:19:49.011Z,14.82
2023-02-07T16:22:33.414Z,14.30
2023-02-07T16:25:06.576Z,14.80
2023-02-07T16:27:48.349Z,14.80
2023-02-07T16:30:24.178Z,15.52
2023-02-07T16:33:17.219Z,15.32
2023-02-07T16:35:52.898Z,15.52
2023-02-07T16:38:25.379Z,18.92
2023-02-07T16:41:06.338Z,20.55
2023-02-07T16:43:46.451Z,18.85
2023-02-07T16:46:21.858Z,18.70
2023-02-07T16:49:04.620Z,16.42
2023-02-07T16:51:45.750Z,14.30
2023-02-07T16:54:25.038Z,14.45
2023-02-07T16:57:01.424Z,12.80
2023-02-07T16:59:34.837Z,14.30
2023-02-07T17:02:17.291Z,14.48
2023-02-07T17:04:49.838Z,14.20
2023-02-07T17:07:36.231Z,13.27
2023-02-07T17:10:23.274Z,14.07
2023-02-07T17:13:05.182Z,13.73
2023-02-07T17:15:39.381Z,14.40
2023-02-07T17:18:13.462Z,14.18
2023-02-07T17:21:11.988Z,14.77
2023-02-07T17:23:49.585Z,15.52
2023-02-07T17:26:27.778Z,14.60
2023-02-07T17:29:03.056Z,15.70
2023-02-07T17:31:35.315Z,14.27
2023-02-07T17:34:08.368Z,13.20
2023-02-07T17:36:41.113Z,13.75
2023-02-07T17:39:25.994Z,13.57
2023-02-07T17:42:07.594Z,12.60
2023-02-07T17:44:40.674Z,12.48
2023-02-07T17:47:13.110Z,12.75
2023-02-07T17:49:45.949Z,13.73
2023-02-07T17:52:18.148Z,12.98
2023-02-07T17:55:00.911Z,12.40
2023-02-07T17:57:33.187Z,13.38
2023-02-07T18:00:06.468Z,14.38
2023-02-07T18:02:40.475Z,13.80
2023-02-07T18:05:13.360Z,14.10
2023-02-07T18:07:51.474Z,13.13
2023-02-07T18:10:32.390Z,13.93
2023-02-07T18:13:04.788Z,14.27
2023-02-07T18:15:37.505Z,14.43
2023-02-07T18:18:09.655Z,14.85
2023-02-07T18:20:42.253Z,14.43
2023-02-07T18:23:15.754Z,15.60
2023-02-07T18:25:54.435Z,14.90
2023-02-07T18:28:26.462Z,15.25
2023-02-07T18:31:00.472Z,15.05
2023-02-07T18:33:36.811Z,15.32
2023-02-07T18:36:10.520Z,15.65
2023-02-07T18:38:47.999Z,15.18
2023-02-07T18:41:40.323Z,15.52
2023-02-07T18:44:12.839Z,15.57
2023-02-07T18:46:45.080Z,16.10
2023-02-07T18:49:30.928Z,16.33
2023-02-07T18:52:03.078Z,15.50
2023-02-07T18:54:36.663Z,15.40
2023-02-07T18:57:11.804Z,16.33
2023-02-07T18:59:52.014Z,17.92
2023-02-07T19:02:29.288Z,19.20
2023-02-07T19:05:06.860Z,17.40
2023-02-07T19:07:44.516Z,18.17
2023-02-07T19:10:17.696Z,18.75
2023-02-07T19:13:06.180Z,16.88
2023-02-07T19:15:50.508Z,19.77
2023-02-07T19:18:23.195Z,20.23
2023-02-07T19:20:55.361Z,20.85
2023-02-07T19:23:31.136Z,19.55
2023-02-07T19:26:03.652Z,21.48
2023-02-07T19:28:41.178Z,21.25
2023-02-07T19:31:18.542Z,21.67
2023-02-07T19:34:06.276Z,21.80
2023-02-07T19:36:38.197Z,22.50
2023-02-07T19:39:31.256Z,20.60
2023-02-07T19:42:08.317Z,21.40
2023-02-07T19:44:44.937Z,21.83
2023-02-07T19:47:17.115Z,21.55
2023-02-07T19:49:52.186Z,21.83
2023-02-07T19:52:26.034Z,22.38
2023-02-07T19:54:58.853Z,23.02
2023-02-07T19:57:31.076Z,23.98
2023-02-07T20:00:07.322Z,23.55
2023-02-07T20:02:39.775Z,22.88
2023-02-07T20:05:12.443Z,22.92
2023-02-07T20:07:44.754Z,22.52
2023-02-07T20:10:17.530Z,21.40
2023-02-07T20:12:49.856Z,21.38
2023-02-07T20:15:25.266Z,23.70
2023-02-07T20:17:57.479Z,23.75
2023-02-07T20:20:30.238Z,24.52
2023-02-07T20:23:02.460Z,23.75
2023-02-07T20:25:37.899Z,22.63
2023-02-07T20:28:11.389Z,25.00
2023-02-07T20:30:49.653Z,22.60
2023-02-07T20:33:21.761Z,22.58
2023-02-07T20:35:57.402Z,23.42
2023-02-07T20:38:29.784Z,23.00
2023-02-07T20:41:10.032Z,22.52
2023-02-07T20:43:43.138Z,22.63
2023-02-07T20:46:18.574Z,23.25
2023-02-07T20:48:50.922Z,22.23
2023-02-07T20:51:24.206Z,22.42
2023-02-07T20:54:00.122Z,23.45
2023-02-07T20:56:33.831Z,23.85
2023-02-07T20:59:06.270Z,23.20
2023-02-07T21:01:42.726Z,23.13
2023-02-07T21:04:15.024Z,23.98
2023-02-07T21:06:48.221Z,23.70
2023-02-07T21:09:20.900Z,22.85
2023-02-07T21:11:55.646Z,24.00
2023-02-07T21:14:31.032Z,24.13
2023-02-07T21:17:09.556Z,25.55
2023-02-07T21:19:41.880Z,25.70
2023-02-07T21:22:14.255Z,26.08
2023-02-07T21:24:46.022Z,25.45
2023-02-07T21:27:18.176Z,25.75
2023-02-07T21:29:49.987Z,25.48
2023-02-07T21:32:24.949Z,25.17
2023-02-07T21:34:56.598Z,26.95
2023-02-07T21:37:59.057Z,27.70
2023-02-07T21:40:30.954Z,27.80
2023-02-07T21:43:03.127Z,27.33
2023-02-07T21:45:41.490Z,27.42
2023-02-07T21:48:49.752Z,28.90
2023-02-07T21:51:39.078Z,27.67
2023-02-07T21:54:15.931Z,27.42
2023-02-07T21:56:48.066Z,27.77
2023-02-07T21:59:22.743Z,27.48
2023-02-07T22:01:55.948Z,28.67
2023-02-07T22:04:32.156Z,27.63
2023-02-07T22:07:03.739Z,27.65
2023-02-07T22:09:35.680Z,29.85
2023-02-07T22:12:10.585Z,29.98
2023-02-07T22:14:45.042Z,31.40
2023-02-07T22:17:16.260Z,30.38
2023-02-07T22:19:54.181Z,32.40
2023-02-07T22:22:25.547Z,30.73
2023-02-07T22:24:57.569Z,31.50
2023-02-07T22:27:29.031Z,30.08
2023-02-07T22:33:00.695Z,30.40
2023-02-07T22:35:39.478Z,29.83
2023-02-07T22:38:12.213Z,30.92
2023-02-07T22:40:45.864Z,32.20
2023-02-07T22:43:22.126Z,31.55
2023-02-07T22:45:55.976Z,30.55
2023-02-07T22:48:27.433Z,30.42
2023-02-07T22:51:02.720Z,31.10
2023-02-07T22:53:34.024Z,31.98
2023-02-07T22:56:08.888Z,31.85
2023-02-07T22:58:40.843Z,31.17
2023-02-07T23:01:23.126Z,30.45
2023-02-07T23:03:55.628Z,32.03
2023-02-07T23:06:32.714Z,30.00
2023-02-07T23:09:06.570Z,32.63
2023-02-07T23:11:39.516Z,30.33
2023-02-07T23:14:10.848Z,32.53
2023-02-07T23:16:43.344Z,32.75
2023-02-07T23:19:17.630Z,33.00
2023-02-07T23:21:52.218Z,32.83
2023-02-07T23:24:23.952Z,32.53
2023-02-07T23:26:55.866Z,33.97
2023-02-07T23:29:34.106Z,32.55
2023-02-07T23:32:11.216Z,34.25
2023-02-07T23:34:44.444Z,33.95
2023-02-07T23:37:19.613Z,34.28
2023-02-07T23:39:51.365Z,33.53
2023-02-07T23:42:23.657Z,33.25
2023-02-07T23:44:55.366Z,32.30
2023-02-07T23:47:27.477Z,33.10
2023-02-07T23:49:59.258Z,33.00
2023-02-07T23:52:34.208Z,33.95
2023-02-07T23:55:05.727Z,33.55
2023-02-07T23:57:37.685Z,34.03
